sensor_id;sensor_type;location;lat;lon;timestamp;pressure;altitude;pressure_sealevel;temperature;humidity
34205;BME280;20471;49.680;20.074;2023-07-29T07:04:33;96718.06;;;19.39;86.03
34205;BME280;20471;49.680;20.074;2023-07-29T07:07:00;96720.16;;;19.53;85.82
34205;BME280;20471;49.680;20.074;2023-07-29T07:09:26;96718.35;;;19.64;85.42
34205;BME280;20471;49.680;20.074;2023-07-29T07:11:53;96707.59;;;19.73;85.13
34205;BME280;20471;49.680;20.074;2023-07-29T07:14:19;96705.63;;;19.87;84.81
34205;BME280;20471;49.680;20.074;2023-07-29T07:16:45;96700.09;;;19.98;84.47
34205;BME280;20471;49.680;20.074;2023-07-29T07:19:11;96700.37;;;20.09;84.39
34205;BME280;20471;49.680;20.074;2023-07-29T07:21:38;96699.88;;;20.20;84.34
34205;BME280;20471;49.680;20.074;2023-07-29T07:24:04;96697.92;;;20.34;83.77
34205;BME280;20471;49.680;20.074;2023-07-29T07:26:30;96697.00;;;20.46;83.44
34205;BME280;20471;49.680;20.074;2023-07-29T07:28:57;96701.98;;;20.61;83.24
34205;BME280;20471;49.680;20.074;2023-07-29T07:31:23;96693.77;;;20.77;83.50
34205;BME280;20471;49.680;20.074;2023-07-29T07:33:49;96694.49;;;20.97;83.03
34205;BME280;20471;49.680;20.074;2023-07-29T07:36:15;96698.48;;;21.16;82.91
34205;BME280;20471;49.680;20.074;2023-07-29T07:38:42;96695.92;;;21.35;82.55
34205;BME280;20471;49.680;20.074;2023-07-29T07:41:08;96696.98;;;21.51;81.63
34205;BME280;20471;49.680;20.074;2023-07-29T07:43:34;96698.61;;;21.67;81.05
34205;BME280;20471;49.680;20.074;2023-07-29T07:46:01;96697.98;;;21.91;80.70
34205;BME280;20471;49.680;20.074;2023-07-29T07:48:28;96694.63;;;22.27;79.93
34205;BME280;20471;49.680;20.074;2023-07-29T07:50:54;96694.27;;;22.68;79.41
34205;BME280;20471;49.680;20.074;2023-07-29T07:53:20;96699.14;;;23.12;78.41
34205;BME280;20471;49.680;20.074;2023-07-29T07:55:47;96693.87;;;23.49;77.47
34205;BME280;20471;49.680;20.074;2023-07-29T07:58:13;96693.40;;;23.89;76.94
34205;BME280;20471;49.680;20.074;2023-07-29T08:00:39;96690.09;;;24.37;75.70
34205;BME280;20471;49.680;20.074;2023-07-29T08:03:05;96690.27;;;24.66;74.23
34205;BME280;20471;49.680;20.074;2023-07-29T08:05:32;96687.90;;;24.75;72.89
34205;BME280;20471;49.680;20.074;2023-07-29T08:07:58;96683.96;;;24.75;72.37
34205;BME280;20471;49.680;20.074;2023-07-29T08:10:25;96681.34;;;24.70;71.95
34205;BME280;20471;49.680;20.074;2023-07-29T08:12:51;96684.39;;;24.69;71.72
34205;BME280;20471;49.680;20.074;2023-07-29T08:15:17;96681.96;;;24.65;70.63
34205;BME280;20471;49.680;20.074;2023-07-29T08:17:45;96683.19;;;24.59;70.00
34205;BME280;20471;49.680;20.074;2023-07-29T08:20:12;96679.41;;;24.52;70.24
34205;BME280;20471;49.680;20.074;2023-07-29T08:22:39;96681.04;;;24.45;70.11
34205;BME280;20471;49.680;20.074;2023-07-29T08:25:05;96683.52;;;24.38;69.87
34205;BME280;20471;49.680;20.074;2023-07-29T08:27:33;96681.29;;;24.30;69.72
34205;BME280;20471;49.680;20.074;2023-07-29T08:30:00;96677.61;;;24.20;69.64
34205;BME280;20471;49.680;20.074;2023-07-29T08:32:26;96682.98;;;24.08;69.48
34205;BME280;20471;49.680;20.074;2023-07-29T08:34:52;96677.30;;;23.96;68.98
34205;BME280;20471;49.680;20.074;2023-07-29T08:37:18;96682.04;;;23.89;68.95
34205;BME280;20471;49.680;20.074;2023-07-29T08:39:45;96678.57;;;23.82;68.86
34205;BME280;20471;49.680;20.074;2023-07-29T08:42:11;96682.86;;;23.78;69.19
34205;BME280;20471;49.680;20.074;2023-07-29T08:44:42;96681.52;;;23.75;69.15
34205;BME280;20471;49.680;20.074;2023-07-29T08:47:09;96679.93;;;23.69;69.05
34205;BME280;20471;49.680;20.074;2023-07-29T08:49:36;96679.20;;;23.64;69.25
34205;BME280;20471;49.680;20.074;2023-07-29T15:22:07;96686.48;;;19.79;86.13
34205;BME280;20471;49.680;20.074;2023-07-29T15:24:33;96677.82;;;20.23;85.85
34205;BME280;20471;49.680;20.074;2023-07-29T15:27:00;96671.38;;;20.30;85.82
34205;BME280;20471;49.680;20.074;2023-07-29T15:29:26;96662.34;;;20.37;86.12
34205;BME280;20471;49.680;20.074;2023-07-29T15:31:52;96657.33;;;20.39;85.63
34205;BME280;20471;49.680;20.074;2023-07-29T15:34:18;96647.02;;;20.38;85.72
34205;BME280;20471;49.680;20.074;2023-07-29T15:36:45;96641.11;;;20.41;85.77
34205;BME280;20471;49.680;20.074;2023-07-29T15:39:11;96640.11;;;20.38;85.27
34205;BME280;20471;49.680;20.074;2023-07-29T15:41:37;96641.59;;;20.31;85.10
34205;BME280;20471;49.680;20.074;2023-07-29T15:44:04;96643.83;;;20.32;85.32
34205;BME280;20471;49.680;20.074;2023-07-29T15:46:30;96642.52;;;20.35;85.52
34205;BME280;20471;49.680;20.074;2023-07-29T15:48:56;96643.48;;;20.41;85.50
34205;BME280;20471;49.680;20.074;2023-07-29T15:51:26;96639.35;;;20.48;85.51
34205;BME280;20471;49.680;20.074;2023-07-29T15:53:52;96634.63;;;20.53;85.29
34205;BME280;20471;49.680;20.074;2023-07-29T15:56:19;96631.95;;;20.56;85.43
34205;BME280;20471;49.680;20.074;2023-07-29T15:58:45;96626.91;;;20.60;85.13
34205;BME280;20471;49.680;20.074;2023-07-29T16:01:12;96622.85;;;20.61;84.91
34205;BME280;20471;49.680;20.074;2023-07-29T16:03:38;96627.79;;;20.68;84.68
34205;BME280;20471;49.680;20.074;2023-07-29T16:06:07;96628.63;;;20.75;84.45
34205;BME280;20471;49.680;20.074;2023-07-29T16:08:33;96623.84;;;20.85;84.58
34205;BME280;20471;49.680;20.074;2023-07-29T16:10:59;96619.09;;;20.95;84.27
34205;BME280;20471;49.680;20.074;2023-07-29T16:13:26;96618.84;;;21.08;84.37
34205;BME280;20471;49.680;20.074;2023-07-29T16:15:52;96619.12;;;21.12;83.84
34205;BME280;20471;49.680;20.074;2023-07-29T16:18:18;96623.45;;;21.15;83.32
34205;BME280;20471;49.680;20.074;2023-07-29T16:20:45;96623.83;;;21.07;82.26
34205;BME280;20471;49.680;20.074;2023-07-29T16:23:12;96622.13;;;20.97;82.23
34205;BME280;20471;49.680;20.074;2023-07-29T16:25:38;96622.16;;;20.94;82.72
34205;BME280;20471;49.680;20.074;2023-07-29T16:28:04;96621.54;;;20.92;82.93
34205;BME280;20471;49.680;20.074;2023-07-29T16:30:31;96617.89;;;20.89;83.22
34205;BME280;20471;49.680;20.074;2023-07-29T16:32:57;96618.18;;;20.89;83.57
34205;BME280;20471;49.680;20.074;2023-07-29T16:35:23;96613.79;;;20.89;83.96
34205;BME280;20471;49.680;20.074;2023-07-29T16:37:50;96615.31;;;20.83;83.98
34205;BME280;20471;49.680;20.074;2023-07-29T16:40:17;96619.54;;;20.78;83.95
34205;BME280;20471;49.680;20.074;2023-07-29T16:42:43;96622.48;;;20.76;83.99
34205;BME280;20471;49.680;20.074;2023-07-29T16:45:10;96620.55;;;20.68;83.92
34205;BME280;20471;49.680;20.074;2023-07-29T16:47:36;96621.19;;;20.62;84.33
34205;BME280;20471;49.680;20.074;2023-07-29T16:50:02;96620.54;;;20.57;84.23
34205;BME280;20471;49.680;20.074;2023-07-29T16:52:29;96620.27;;;20.48;84.46
34205;BME280;20471;49.680;20.074;2023-07-29T16:54:55;96614.05;;;20.46;84.62
34205;BME280;20471;49.680;20.074;2023-07-29T16:57:21;96614.70;;;20.42;84.65
34205;BME280;20471;49.680;20.074;2023-07-29T16:59:48;96608.73;;;20.35;84.65
34205;BME280;20471;49.680;20.074;2023-07-29T17:02:14;96600.54;;;20.32;84.90
34205;BME280;20471;49.680;20.074;2023-07-29T17:04:40;96596.89;;;20.34;85.11
34205;BME280;20471;49.680;20.074;2023-07-29T17:07:06;96591.08;;;20.34;85.15
34205;BME280;20471;49.680;20.074;2023-07-29T17:09:33;96587.48;;;20.33;85.14
34205;BME280;20471;49.680;20.074;2023-07-29T17:11:59;96586.99;;;20.32;85.30
34205;BME280;20471;49.680;20.074;2023-07-29T17:14:25;96587.52;;;20.33;85.15
34205;BME280;20471;49.680;20.074;2023-07-29T17:16:53;96584.04;;;20.28;84.93
34205;BME280;20471;49.680;20.074;2023-07-29T17:19:19;96580.31;;;20.23;85.18
34205;BME280;20471;49.680;20.074;2023-07-29T17:21:45;96578.52;;;20.18;85.07
34205;BME280;20471;49.680;20.074;2023-07-29T17:24:12;96575.03;;;20.06;85.14
34205;BME280;20471;49.680;20.074;2023-07-29T17:26:38;96578.92;;;20.02;85.50
34205;BME280;20471;49.680;20.074;2023-07-29T17:29:04;96582.05;;;20.02;85.40
34205;BME280;20471;49.680;20.074;2023-07-29T17:31:31;96582.38;;;19.96;85.04
34205;BME280;20471;49.680;20.074;2023-07-29T17:33:57;96586.61;;;19.84;85.03
34205;BME280;20471;49.680;20.074;2023-07-29T17:36:25;96585.11;;;19.81;85.20
34205;BME280;20471;49.680;20.074;2023-07-29T17:38:52;96583.62;;;19.82;85.55
34205;BME280;20471;49.680;20.074;2023-07-29T17:41:18;96586.02;;;19.83;85.77
34205;BME280;20471;49.680;20.074;2023-07-29T17:43:44;96584.86;;;19.84;85.67
34205;BME280;20471;49.680;20.074;2023-07-29T17:46:14;96582.48;;;19.83;85.69
34205;BME280;20471;49.680;20.074;2023-07-29T17:48:43;96577.29;;;19.76;85.47
34205;BME280;20471;49.680;20.074;2023-07-29T17:51:10;96570.63;;;19.69;85.70
34205;BME280;20471;49.680;20.074;2023-07-29T17:53:36;96570.21;;;19.67;85.99
34205;BME280;20471;49.680;20.074;2023-07-29T17:56:02;96566.60;;;19.66;86.03
34205;BME280;20471;49.680;20.074;2023-07-29T17:58:29;96567.38;;;19.67;86.10
34205;BME280;20471;49.680;20.074;2023-07-29T18:00:58;96573.27;;;19.63;85.98
34205;BME280;20471;49.680;20.074;2023-07-29T18:03:25;96570.49;;;19.53;85.84
34205;BME280;20471;49.680;20.074;2023-07-29T18:05:51;96571.96;;;19.45;86.05
34205;BME280;20471;49.680;20.074;2023-07-29T18:08:17;96574.60;;;19.39;86.14
34205;BME280;20471;49.680;20.074;2023-07-29T18:10:44;96572.06;;;19.34;86.35
34205;BME280;20471;49.680;20.074;2023-07-29T18:13:10;96568.41;;;19.30;86.36
34205;BME280;20471;49.680;20.074;2023-07-29T19:15:23;96572.31;;;18.53;88.17
34205;BME280;20471;49.680;20.074;2023-07-29T19:18:30;96571.53;;;18.45;88.18
34205;BME280;20471;49.680;20.074;2023-07-29T19:27:42;96570.08;;;18.40;88.69
34205;BME280;20471;49.680;20.074;2023-07-29T19:33:54;96577.08;;;18.40;88.54
34205;BME280;20471;49.680;20.074;2023-07-29T19:50:07;96587.33;;;18.67;87.64
34205;BME280;20471;49.680;20.074;2023-07-29T19:52:35;96586.51;;;18.70;87.37
34205;BME280;20471;49.680;20.074;2023-07-29T19:55:04;96583.70;;;18.63;87.58
34205;BME280;20471;49.680;20.074;2023-07-29T19:57:32;96582.99;;;18.61;87.79
34205;BME280;20471;49.680;20.074;2023-07-29T19:59:59;96581.80;;;18.55;87.76
34205;BME280;20471;49.680;20.074;2023-07-29T20:02:27;96580.29;;;18.52;87.79
34205;BME280;20471;49.680;20.074;2023-07-29T20:04:57;96572.16;;;18.49;87.79
34205;BME280;20471;49.680;20.074;2023-07-29T20:07:25;96576.42;;;18.41;87.51
34205;BME280;20471;49.680;20.074;2023-07-29T20:09:53;96576.30;;;18.31;87.65
34205;BME280;20471;49.680;20.074;2023-07-29T20:12:21;96575.05;;;18.28;87.74
34205;BME280;20471;49.680;20.074;2023-07-29T20:14:48;96574.67;;;18.25;87.71
34205;BME280;20471;49.680;20.074;2023-07-29T20:17:16;96572.86;;;18.17;87.43
34205;BME280;20471;49.680;20.074;2023-07-29T20:19:44;96572.08;;;18.10;87.42
34205;BME280;20471;49.680;20.074;2023-07-29T20:22:11;96572.54;;;18.01;87.33
34205;BME280;20471;49.680;20.074;2023-07-29T20:24:39;96568.87;;;17.90;87.22
34205;BME280;20471;49.680;20.074;2023-07-29T20:27:07;96572.39;;;17.80;87.60
34205;BME280;20471;49.680;20.074;2023-07-29T20:29:34;96572.77;;;17.77;87.73
34205;BME280;20471;49.680;20.074;2023-07-29T20:32:02;96571.39;;;17.72;87.91
34205;BME280;20471;49.680;20.074;2023-07-29T20:34:30;96570.79;;;17.69;88.14
34205;BME280;20471;49.680;20.074;2023-07-29T20:36:58;96572.97;;;17.67;87.98
34205;BME280;20471;49.680;20.074;2023-07-29T20:39:26;96575.20;;;17.60;87.93
34205;BME280;20471;49.680;20.074;2023-07-29T20:41:55;96577.11;;;17.55;88.05
34205;BME280;20471;49.680;20.074;2023-07-29T20:44:26;96576.19;;;17.53;88.39
34205;BME280;20471;49.680;20.074;2023-07-29T20:46:54;96577.35;;;17.50;88.38
34205;BME280;20471;49.680;20.074;2023-07-29T20:49:22;96578.94;;;17.49;88.44
34205;BME280;20471;49.680;20.074;2023-07-29T20:51:50;96583.20;;;17.49;88.60
34205;BME280;20471;49.680;20.074;2023-07-29T20:54:18;96588.11;;;17.49;88.68
34205;BME280;20471;49.680;20.074;2023-07-29T20:56:46;96591.21;;;17.49;88.40
34205;BME280;20471;49.680;20.074;2023-07-29T20:59:13;96594.92;;;17.44;88.15
34205;BME280;20471;49.680;20.074;2023-07-29T21:01:41;96593.51;;;17.38;88.09
34205;BME280;20471;49.680;20.074;2023-07-29T21:04:09;96595.69;;;17.31;88.08
34205;BME280;20471;49.680;20.074;2023-07-29T21:06:37;96603.83;;;17.25;88.25
34205;BME280;20471;49.680;20.074;2023-07-29T21:09:05;96604.15;;;17.18;88.32
34205;BME280;20471;49.680;20.074;2023-07-29T21:11:32;96603.28;;;17.14;88.44
34205;BME280;20471;49.680;20.074;2023-07-29T21:14:00;96608.89;;;17.15;88.73
34205;BME280;20471;49.680;20.074;2023-07-29T21:16:28;96600.27;;;17.16;88.79
34205;BME280;20471;49.680;20.074;2023-07-29T21:18:56;96597.01;;;17.14;88.44
34205;BME280;20471;49.680;20.074;2023-07-29T21:21:24;96596.48;;;17.13;88.45
34205;BME280;20471;49.680;20.074;2023-07-29T21:23:51;96598.48;;;17.07;88.09
34205;BME280;20471;49.680;20.074;2023-07-29T21:26:19;96598.20;;;16.98;88.14
34205;BME280;20471;49.680;20.074;2023-07-29T21:28:47;96593.34;;;16.95;88.32
34205;BME280;20471;49.680;20.074;2023-07-29T21:31:14;96596.83;;;16.92;88.53
34205;BME280;20471;49.680;20.074;2023-07-29T21:33:42;96598.46;;;16.94;88.54
34205;BME280;20471;49.680;20.074;2023-07-29T21:36:10;96608.49;;;16.96;88.57
34205;BME280;20471;49.680;20.074;2023-07-29T21:38:37;96614.92;;;16.92;88.45
34205;BME280;20471;49.680;20.074;2023-07-29T21:41:07;96624.80;;;16.90;88.51
34205;BME280;20471;49.680;20.074;2023-07-29T21:43:35;96626.54;;;16.90;88.38
34205;BME280;20471;49.680;20.074;2023-07-29T21:46:03;96632.47;;;16.85;88.48
34205;BME280;20471;49.680;20.074;2023-07-29T21:48:32;96632.94;;;16.77;87.94
34205;BME280;20471;49.680;20.074;2023-07-29T21:51:00;96635.38;;;16.66;88.10
34205;BME280;20471;49.680;20.074;2023-07-29T21:53:28;96637.65;;;16.62;88.38
34205;BME280;20471;49.680;20.074;2023-07-29T21:55:57;96635.96;;;16.62;88.61
34205;BME280;20471;49.680;20.074;2023-07-29T21:58:36;96632.39;;;16.60;88.53
34205;BME280;20471;49.680;20.074;2023-07-29T22:01:15;96636.56;;;16.57;88.77
34205;BME280;20471;49.680;20.074;2023-07-29T22:03:43;96635.54;;;16.59;88.98
34205;BME280;20471;49.680;20.074;2023-07-29T22:06:11;96640.21;;;16.57;89.06
34205;BME280;20471;49.680;20.074;2023-07-29T22:08:38;96644.90;;;16.58;89.07
34205;BME280;20471;49.680;20.074;2023-07-29T22:11:07;96640.80;;;16.54;88.97
34205;BME280;20471;49.680;20.074;2023-07-29T22:13:38;96646.29;;;16.49;89.02
34205;BME280;20471;49.680;20.074;2023-07-29T22:16:05;96651.47;;;16.50;89.42
34205;BME280;20471;49.680;20.074;2023-07-29T22:18:33;96652.48;;;16.52;89.29
34205;BME280;20471;49.680;20.074;2023-07-29T22:21:01;96654.63;;;16.49;89.07
34205;BME280;20471;49.680;20.074;2023-07-29T22:23:28;96651.13;;;16.46;89.28
34205;BME280;20471;49.680;20.074;2023-07-29T22:26:02;96658.36;;;16.42;89.31
34205;BME280;20471;49.680;20.074;2023-07-29T22:28:31;96659.34;;;16.44;89.40
34205;BME280;20471;49.680;20.074;2023-07-29T22:31:00;96655.98;;;16.46;89.35
34205;BME280;20471;49.680;20.074;2023-07-29T22:33:32;96657.01;;;16.45;89.33
34205;BME280;20471;49.680;20.074;2023-07-29T22:36:03;96654.00;;;16.43;88.91
34205;BME280;20471;49.680;20.074;2023-07-29T22:38:31;96662.11;;;16.39;89.30
34205;BME280;20471;49.680;20.074;2023-07-29T22:41:00;96659.20;;;16.37;89.03
34205;BME280;20471;49.680;20.074;2023-07-29T22:43:27;96653.63;;;16.29;89.04
34205;BME280;20471;49.680;20.074;2023-07-29T22:45:58;96654.00;;;16.31;89.64
34205;BME280;20471;49.680;20.074;2023-07-29T22:48:26;96658.61;;;16.37;89.72
34205;BME280;20471;49.680;20.074;2023-07-29T22:50:55;96659.92;;;16.39;89.54
34205;BME280;20471;49.680;20.074;2023-07-29T22:53:23;96658.11;;;16.35;89.45
34205;BME280;20471;49.680;20.074;2023-07-29T22:55:52;96660.08;;;16.34;89.52
34205;BME280;20471;49.680;20.074;2023-07-29T22:58:20;96665.26;;;16.37;89.80
34205;BME280;20471;49.680;20.074;2023-07-29T23:00:49;96664.38;;;16.35;89.41
34205;BME280;20471;49.680;20.074;2023-07-29T23:03:17;96667.16;;;16.36;89.66
34205;BME280;20471;49.680;20.074;2023-07-29T23:05:46;96665.65;;;16.38;89.64
34205;BME280;20471;49.680;20.074;2023-07-29T23:08:14;96664.27;;;16.37;89.55
34205;BME280;20471;49.680;20.074;2023-07-29T23:10:41;96668.59;;;16.37;89.64
34205;BME280;20471;49.680;20.074;2023-07-29T23:13:09;96671.62;;;16.35;89.52
34205;BME280;20471;49.680;20.074;2023-07-29T23:15:38;96666.31;;;16.32;89.70
34205;BME280;20471;49.680;20.074;2023-07-29T23:18:06;96666.81;;;16.34;90.02
34205;BME280;20471;49.680;20.074;2023-07-29T23:20:34;96667.65;;;16.37;90.00
34205;BME280;20471;49.680;20.074;2023-07-29T23:23:03;96667.19;;;16.42;89.86
34205;BME280;20471;49.680;20.074;2023-07-29T23:25:31;96657.37;;;16.40;89.60
34205;BME280;20471;49.680;20.074;2023-07-29T23:27:59;96658.42;;;16.34;89.83
34205;BME280;20471;49.680;20.074;2023-07-29T23:30:26;96657.44;;;16.33;89.90
34205;BME280;20471;49.680;20.074;2023-07-29T23:32:54;96662.89;;;16.33;89.86
34205;BME280;20471;49.680;20.074;2023-07-29T23:35:22;96668.90;;;16.35;90.09
34205;BME280;20471;49.680;20.074;2023-07-29T23:37:49;96670.40;;;16.40;90.07
34205;BME280;20471;49.680;20.074;2023-07-29T23:40:17;96670.61;;;16.41;89.82
34205;BME280;20471;49.680;20.074;2023-07-29T23:42:45;96666.46;;;16.37;89.74
34205;BME280;20471;49.680;20.074;2023-07-29T23:45:12;96670.71;;;16.37;90.02
34205;BME280;20471;49.680;20.074;2023-07-29T23:47:40;96670.95;;;16.41;90.31
34205;BME280;20471;49.680;20.074;2023-07-29T23:50:09;96670.13;;;16.46;90.31
34205;BME280;20471;49.680;20.074;2023-07-29T23:52:36;96669.84;;;16.51;90.38
34205;BME280;20471;49.680;20.074;2023-07-29T23:55:04;96674.69;;;16.55;90.45
34205;BME280;20471;49.680;20.074;2023-07-29T23:57:32;96674.54;;;16.58;90.10
